sensor_id;sensor_type;location;lat;lon;timestamp;P1;durP1;ratioP1;P2;durP2;ratioP2
48207;SDS011;33997;53.278;9.708;2023-07-09T00:01:37;6.35;;;3.15;;
48207;SDS011;33997;53.278;9.708;2023-07-09T00:04:02;7.15;;;3.40;;
48207;SDS011;33997;53.278;9.708;2023-07-09T00:06:28;5.47;;;3.17;;
48207;SDS011;33997;53.278;9.708;2023-07-09T00:08:54;10.63;;;3.15;;
48207;SDS011;33997;53.278;9.708;2023-07-09T00:11:20;7.03;;;3.72;;
48207;SDS011;33997;53.278;9.708;2023-07-09T00:13:46;5.53;;;3.17;;
48207;SDS011;33997;53.278;9.708;2023-07-09T00:16:12;6.57;;;3.35;;
48207;SDS011;33997;53.278;9.708;2023-07-09T00:18:41;7.57;;;3.47;;
48207;SDS011;33997;53.278;9.708;2023-07-09T00:21:07;4.88;;;3.00;;
48207;SDS011;33997;53.278;9.708;2023-07-09T00:23:33;5.75;;;3.35;;
48207;SDS011;33997;53.278;9.708;2023-07-09T00:25:58;9.32;;;3.50;;
48207;SDS011;33997;53.278;9.708;2023-07-09T00:28:24;8.55;;;3.60;;
48207;SDS011;33997;53.278;9.708;2023-07-09T00:30:50;6.50;;;3.42;;
48207;SDS011;33997;53.278;9.708;2023-07-09T00:33:16;8.35;;;3.00;;
48207;SDS011;33997;53.278;9.708;2023-07-09T00:35:45;8.00;;;3.55;;
48207;SDS011;33997;53.278;9.708;2023-07-09T00:38:14;12.00;;;4.18;;
48207;SDS011;33997;53.278;9.708;2023-07-09T00:40:46;6.25;;;3.55;;
48207;SDS011;33997;53.278;9.708;2023-07-09T00:43:24;9.15;;;4.07;;
48207;SDS011;33997;53.278;9.708;2023-07-09T00:48:45;7.30;;;3.33;;
48207;SDS011;33997;53.278;9.708;2023-07-09T00:51:19;7.60;;;3.30;;
48207;SDS011;33997;53.278;9.708;2023-07-09T00:53:46;7.53;;;4.10;;
48207;SDS011;33997;53.278;9.708;2023-07-09T00:56:17;7.15;;;3.50;;
48207;SDS011;33997;53.278;9.708;2023-07-09T00:58:52;9.10;;;3.97;;
48207;SDS011;33997;53.278;9.708;2023-07-09T01:01:20;7.65;;;3.78;;
48207;SDS011;33997;53.278;9.708;2023-07-09T01:03:47;6.88;;;3.28;;
48207;SDS011;33997;53.278;9.708;2023-07-09T01:06:17;9.02;;;4.10;;
48207;SDS011;33997;53.278;9.708;2023-07-09T01:08:45;9.48;;;3.80;;
48207;SDS011;33997;53.278;9.708;2023-07-09T01:11:17;13.07;;;3.70;;
48207;SDS011;33997;53.278;9.708;2023-07-09T01:13:46;11.13;;;4.00;;
48207;SDS011;33997;53.278;9.708;2023-07-09T01:16:13;10.10;;;3.67;;
48207;SDS011;33997;53.278;9.708;2023-07-09T01:18:40;8.35;;;4.15;;
48207;SDS011;33997;53.278;9.708;2023-07-09T01:21:08;6.75;;;3.50;;
48207;SDS011;33997;53.278;9.708;2023-07-09T01:23:40;5.63;;;3.40;;
48207;SDS011;33997;53.278;9.708;2023-07-09T01:26:17;9.00;;;3.92;;
48207;SDS011;33997;53.278;9.708;2023-07-09T01:28:46;7.20;;;3.80;;
48207;SDS011;33997;53.278;9.708;2023-07-09T01:31:14;10.05;;;4.28;;
48207;SDS011;33997;53.278;9.708;2023-07-09T01:33:41;10.90;;;4.05;;
48207;SDS011;33997;53.278;9.708;2023-07-09T01:36:10;7.05;;;4.03;;
48207;SDS011;33997;53.278;9.708;2023-07-09T01:38:38;9.90;;;4.10;;
48207;SDS011;33997;53.278;9.708;2023-07-09T01:41:08;5.22;;;3.53;;
48207;SDS011;33997;53.278;9.708;2023-07-09T01:43:36;8.90;;;4.40;;
48207;SDS011;33997;53.278;9.708;2023-07-09T01:46:01;7.28;;;3.90;;
48207;SDS011;33997;53.278;9.708;2023-07-09T01:48:27;6.47;;;3.63;;
48207;SDS011;33997;53.278;9.708;2023-07-09T01:50:53;5.85;;;3.60;;
48207;SDS011;33997;53.278;9.708;2023-07-09T01:53:21;7.72;;;3.65;;
48207;SDS011;33997;53.278;9.708;2023-07-09T01:55:50;5.78;;;3.72;;
48207;SDS011;33997;53.278;9.708;2023-07-09T01:58:16;7.22;;;3.92;;
48207;SDS011;33997;53.278;9.708;2023-07-09T02:00:41;5.68;;;3.83;;
48207;SDS011;33997;53.278;9.708;2023-07-09T02:03:08;6.15;;;4.13;;
48207;SDS011;33997;53.278;9.708;2023-07-09T02:05:34;9.70;;;3.72;;
48207;SDS011;33997;53.278;9.708;2023-07-09T02:08:01;6.20;;;3.70;;
48207;SDS011;33997;53.278;9.708;2023-07-09T02:10:26;5.78;;;4.05;;
48207;SDS011;33997;53.278;9.708;2023-07-09T02:12:52;6.22;;;3.78;;
48207;SDS011;33997;53.278;9.708;2023-07-09T02:15:18;5.57;;;3.42;;
48207;SDS011;33997;53.278;9.708;2023-07-09T02:17:43;7.18;;;3.85;;
48207;SDS011;33997;53.278;9.708;2023-07-09T02:20:09;7.05;;;3.90;;
48207;SDS011;33997;53.278;9.708;2023-07-09T02:22:36;6.95;;;3.80;;
48207;SDS011;33997;53.278;9.708;2023-07-09T02:25:02;7.22;;;4.00;;
48207;SDS011;33997;53.278;9.708;2023-07-09T02:27:28;6.30;;;3.78;;
48207;SDS011;33997;53.278;9.708;2023-07-09T02:29:54;8.00;;;3.80;;
48207;SDS011;33997;53.278;9.708;2023-07-09T02:32:22;6.55;;;3.70;;
48207;SDS011;33997;53.278;9.708;2023-07-09T02:34:50;7.75;;;4.07;;
48207;SDS011;33997;53.278;9.708;2023-07-09T02:37:18;6.28;;;4.13;;
48207;SDS011;33997;53.278;9.708;2023-07-09T02:39:45;6.55;;;3.65;;
48207;SDS011;33997;53.278;9.708;2023-07-09T02:42:11;6.15;;;3.90;;
48207;SDS011;33997;53.278;9.708;2023-07-09T02:44:40;5.88;;;3.75;;
48207;SDS011;33997;53.278;9.708;2023-07-09T02:47:06;5.90;;;3.85;;
48207;SDS011;33997;53.278;9.708;2023-07-09T02:49:32;6.50;;;4.07;;
48207;SDS011;33997;53.278;9.708;2023-07-09T02:51:57;8.38;;;3.60;;
48207;SDS011;33997;53.278;9.708;2023-07-09T02:54:23;6.80;;;3.80;;
48207;SDS011;33997;53.278;9.708;2023-07-09T02:56:48;6.03;;;3.75;;
48207;SDS011;33997;53.278;9.708;2023-07-09T02:59:14;6.55;;;3.55;;
48207;SDS011;33997;53.278;9.708;2023-07-09T03:01:39;7.55;;;4.20;;
48207;SDS011;33997;53.278;9.708;2023-07-09T03:04:05;7.97;;;4.03;;
48207;SDS011;33997;53.278;9.708;2023-07-09T03:06:31;6.60;;;3.90;;
48207;SDS011;33997;53.278;9.708;2023-07-09T03:08:58;7.55;;;4.00;;
48207;SDS011;33997;53.278;9.708;2023-07-09T03:11:25;8.80;;;3.90;;
48207;SDS011;33997;53.278;9.708;2023-07-09T03:13:52;5.97;;;3.95;;
48207;SDS011;33997;53.278;9.708;2023-07-09T03:16:18;5.78;;;3.83;;
48207;SDS011;33997;53.278;9.708;2023-07-09T03:18:44;6.97;;;4.05;;
48207;SDS011;33997;53.278;9.708;2023-07-09T03:21:10;6.38;;;3.60;;
48207;SDS011;33997;53.278;9.708;2023-07-09T03:23:36;6.63;;;3.80;;
48207;SDS011;33997;53.278;9.708;2023-07-09T03:26:01;7.40;;;4.10;;
48207;SDS011;33997;53.278;9.708;2023-07-09T03:28:28;7.65;;;4.20;;
48207;SDS011;33997;53.278;9.708;2023-07-09T03:30:55;6.63;;;3.85;;
48207;SDS011;33997;53.278;9.708;2023-07-09T03:33:22;10.32;;;4.00;;
48207;SDS011;33997;53.278;9.708;2023-07-09T03:35:48;6.75;;;4.28;;
48207;SDS011;33997;53.278;9.708;2023-07-09T03:38:14;6.40;;;4.05;;
48207;SDS011;33997;53.278;9.708;2023-07-09T03:40:40;7.45;;;3.95;;
48207;SDS011;33997;53.278;9.708;2023-07-09T03:43:06;6.95;;;3.55;;
48207;SDS011;33997;53.278;9.708;2023-07-09T03:45:33;10.60;;;4.68;;
48207;SDS011;33997;53.278;9.708;2023-07-09T03:47:59;6.45;;;4.03;;
48207;SDS011;33997;53.278;9.708;2023-07-09T03:50:25;8.05;;;4.18;;
48207;SDS011;33997;53.278;9.708;2023-07-09T03:52:50;6.40;;;4.00;;
48207;SDS011;33997;53.278;9.708;2023-07-09T03:55:17;8.60;;;4.00;;
48207;SDS011;33997;53.278;9.708;2023-07-09T03:57:42;8.98;;;4.18;;
48207;SDS011;33997;53.278;9.708;2023-07-09T04:00:08;6.45;;;3.85;;
48207;SDS011;33997;53.278;9.708;2023-07-09T04:02:37;7.10;;;4.15;;
48207;SDS011;33997;53.278;9.708;2023-07-09T04:05:04;7.05;;;3.90;;
48207;SDS011;33997;53.278;9.708;2023-07-09T04:07:30;6.10;;;4.03;;
48207;SDS011;33997;53.278;9.708;2023-07-09T04:09:55;5.47;;;3.80;;
48207;SDS011;33997;53.278;9.708;2023-07-09T04:12:21;7.32;;;3.97;;
48207;SDS011;33997;53.278;9.708;2023-07-09T04:14:46;9.48;;;3.97;;
48207;SDS011;33997;53.278;9.708;2023-07-09T04:17:12;8.27;;;3.92;;
48207;SDS011;33997;53.278;9.708;2023-07-09T04:19:37;6.70;;;4.28;;
48207;SDS011;33997;53.278;9.708;2023-07-09T04:22:03;7.00;;;4.15;;
48207;SDS011;33997;53.278;9.708;2023-07-09T04:24:31;8.48;;;4.00;;
48207;SDS011;33997;53.278;9.708;2023-07-09T04:26:58;7.63;;;4.55;;
48207;SDS011;33997;53.278;9.708;2023-07-09T04:29:28;6.53;;;3.60;;
48207;SDS011;33997;53.278;9.708;2023-07-09T04:31:54;9.18;;;3.83;;
48207;SDS011;33997;53.278;9.708;2023-07-09T04:34:19;10.60;;;4.25;;
48207;SDS011;33997;53.278;9.708;2023-07-09T04:36:45;6.20;;;3.55;;
48207;SDS011;33997;53.278;9.708;2023-07-09T04:39:10;6.25;;;3.58;;
48207;SDS011;33997;53.278;9.708;2023-07-09T04:41:36;7.15;;;3.60;;
48207;SDS011;33997;53.278;9.708;2023-07-09T04:44:01;7.60;;;3.80;;
48207;SDS011;33997;53.278;9.708;2023-07-09T04:46:26;7.63;;;4.15;;
48207;SDS011;33997;53.278;9.708;2023-07-09T04:48:52;7.90;;;4.10;;
48207;SDS011;33997;53.278;9.708;2023-07-09T04:51:17;7.40;;;3.50;;
48207;SDS011;33997;53.278;9.708;2023-07-09T04:53:43;6.00;;;4.05;;
48207;SDS011;33997;53.278;9.708;2023-07-09T04:56:09;7.93;;;3.90;;
48207;SDS011;33997;53.278;9.708;2023-07-09T04:58:34;6.60;;;4.10;;
48207;SDS011;33997;53.278;9.708;2023-07-09T05:01:00;7.78;;;3.72;;
48207;SDS011;33997;53.278;9.708;2023-07-09T05:03:26;7.28;;;4.10;;
48207;SDS011;33997;53.278;9.708;2023-07-09T05:05:51;6.88;;;3.95;;
48207;SDS011;33997;53.278;9.708;2023-07-09T05:08:17;6.40;;;3.30;;
48207;SDS011;33997;53.278;9.708;2023-07-09T05:10:44;6.88;;;4.55;;
48207;SDS011;33997;53.278;9.708;2023-07-09T05:13:11;6.68;;;3.90;;
48207;SDS011;33997;53.278;9.708;2023-07-09T05:15:39;5.90;;;3.63;;
48207;SDS011;33997;53.278;9.708;2023-07-09T05:18:06;5.32;;;3.50;;
48207;SDS011;33997;53.278;9.708;2023-07-09T05:20:32;5.50;;;3.60;;
48207;SDS011;33997;53.278;9.708;2023-07-09T05:22:58;5.18;;;3.60;;
48207;SDS011;33997;53.278;9.708;2023-07-09T05:25:23;4.70;;;3.30;;
48207;SDS011;33997;53.278;9.708;2023-07-09T05:27:49;8.02;;;3.88;;
48207;SDS011;33997;53.278;9.708;2023-07-09T05:30:14;6.25;;;3.72;;
48207;SDS011;33997;53.278;9.708;2023-07-09T05:32:40;4.85;;;3.60;;
48207;SDS011;33997;53.278;9.708;2023-07-09T05:35:05;9.38;;;4.10;;
48207;SDS011;33997;53.278;9.708;2023-07-09T05:37:31;6.25;;;3.70;;
48207;SDS011;33997;53.278;9.708;2023-07-09T05:39:57;5.35;;;3.50;;
48207;SDS011;33997;53.278;9.708;2023-07-09T05:42:22;6.72;;;3.75;;
48207;SDS011;33997;53.278;9.708;2023-07-09T05:44:48;5.70;;;3.60;;
48207;SDS011;33997;53.278;9.708;2023-07-09T05:47:13;9.10;;;3.72;;
48207;SDS011;33997;53.278;9.708;2023-07-09T05:49:39;8.00;;;4.10;;
48207;SDS011;33997;53.278;9.708;2023-07-09T05:52:05;7.70;;;3.50;;
48207;SDS011;33997;53.278;9.708;2023-07-09T05:54:31;7.28;;;3.67;;
48207;SDS011;33997;53.278;9.708;2023-07-09T05:56:56;5.55;;;3.25;;
48207;SDS011;33997;53.278;9.708;2023-07-09T05:59:22;5.80;;;3.60;;
48207;SDS011;33997;53.278;9.708;2023-07-09T06:01:48;6.68;;;3.72;;
48207;SDS011;33997;53.278;9.708;2023-07-09T06:04:13;6.13;;;3.20;;
48207;SDS011;33997;53.278;9.708;2023-07-09T06:06:39;5.57;;;3.72;;
48207;SDS011;33997;53.278;9.708;2023-07-09T06:09:06;7.13;;;3.55;;
48207;SDS011;33997;53.278;9.708;2023-07-09T06:11:35;5.32;;;3.25;;
48207;SDS011;33997;53.278;9.708;2023-07-09T06:14:00;6.60;;;3.25;;
48207;SDS011;33997;53.278;9.708;2023-07-09T06:16:26;4.97;;;3.33;;
48207;SDS011;33997;53.278;9.708;2023-07-09T06:18:52;6.88;;;3.53;;
48207;SDS011;33997;53.278;9.708;2023-07-09T06:21:17;6.63;;;3.42;;
48207;SDS011;33997;53.278;9.708;2023-07-09T06:23:44;7.80;;;3.70;;
48207;SDS011;33997;53.278;9.708;2023-07-09T06:26:10;7.63;;;3.58;;
48207;SDS011;33997;53.278;9.708;2023-07-09T06:28:36;5.32;;;3.03;;
48207;SDS011;33997;53.278;9.708;2023-07-09T06:31:01;6.32;;;3.60;;
48207;SDS011;33997;53.278;9.708;2023-07-09T06:33:27;6.72;;;3.58;;
48207;SDS011;33997;53.278;9.708;2023-07-09T06:35:54;7.72;;;3.33;;
48207;SDS011;33997;53.278;9.708;2023-07-09T06:38:25;5.93;;;3.72;;
48207;SDS011;33997;53.278;9.708;2023-07-09T06:40:51;5.45;;;3.60;;
48207;SDS011;33997;53.278;9.708;2023-07-09T06:43:17;8.00;;;3.42;;
48207;SDS011;33997;53.278;9.708;2023-07-09T06:45:49;4.93;;;3.15;;
48207;SDS011;33997;53.278;9.708;2023-07-09T06:48:16;5.70;;;3.50;;
48207;SDS011;33997;53.278;9.708;2023-07-09T06:50:42;5.75;;;3.50;;
48207;SDS011;33997;53.278;9.708;2023-07-09T06:53:08;6.63;;;3.50;;
48207;SDS011;33997;53.278;9.708;2023-07-09T06:55:34;5.80;;;3.65;;
48207;SDS011;33997;53.278;9.708;2023-07-09T06:58:00;5.53;;;3.33;;
48207;SDS011;33997;53.278;9.708;2023-07-09T07:00:25;6.18;;;3.75;;
48207;SDS011;33997;53.278;9.708;2023-07-09T07:02:51;8.07;;;3.95;;
48207;SDS011;33997;53.278;9.708;2023-07-09T07:05:16;5.47;;;3.35;;
48207;SDS011;33997;53.278;9.708;2023-07-09T07:07:43;5.60;;;3.78;;
48207;SDS011;33997;53.278;9.708;2023-07-09T07:10:08;4.88;;;3.45;;
48207;SDS011;33997;53.278;9.708;2023-07-09T07:12:40;4.78;;;3.42;;
48207;SDS011;33997;53.278;9.708;2023-07-09T07:15:10;5.63;;;3.60;;
48207;SDS011;33997;53.278;9.708;2023-07-09T07:17:38;5.03;;;3.33;;
48207;SDS011;33997;53.278;9.708;2023-07-09T07:20:04;8.35;;;3.83;;
48207;SDS011;33997;53.278;9.708;2023-07-09T07:22:31;6.80;;;3.65;;
48207;SDS011;33997;53.278;9.708;2023-07-09T07:24:56;6.03;;;3.30;;
48207;SDS011;33997;53.278;9.708;2023-07-09T07:27:22;5.70;;;3.50;;
48207;SDS011;33997;53.278;9.708;2023-07-09T07:29:47;8.65;;;4.25;;
48207;SDS011;33997;53.278;9.708;2023-07-09T07:32:13;6.72;;;3.60;;
48207;SDS011;33997;53.278;9.708;2023-07-09T07:34:38;6.90;;;3.47;;
48207;SDS011;33997;53.278;9.708;2023-07-09T07:37:04;5.03;;;3.35;;
48207;SDS011;33997;53.278;9.708;2023-07-09T07:39:29;6.40;;;3.40;;
48207;SDS011;33997;53.278;9.708;2023-07-09T07:41:55;8.15;;;3.63;;
48207;SDS011;33997;53.278;9.708;2023-07-09T07:44:20;5.90;;;3.58;;
48207;SDS011;33997;53.278;9.708;2023-07-09T07:46:46;6.47;;;3.72;;
48207;SDS011;33997;53.278;9.708;2023-07-09T07:49:12;7.38;;;3.25;;
48207;SDS011;33997;53.278;9.708;2023-07-09T07:51:38;7.03;;;3.60;;
48207;SDS011;33997;53.278;9.708;2023-07-09T07:54:03;6.65;;;3.30;;
48207;SDS011;33997;53.278;9.708;2023-07-09T07:56:29;6.78;;;3.70;;
48207;SDS011;33997;53.278;9.708;2023-07-09T07:58:55;8.93;;;3.63;;
48207;SDS011;33997;53.278;9.708;2023-07-09T08:01:20;5.97;;;3.65;;
48207;SDS011;33997;53.278;9.708;2023-07-09T08:03:46;5.50;;;3.28;;
48207;SDS011;33997;53.278;9.708;2023-07-09T08:06:11;6.35;;;3.60;;
48207;SDS011;33997;53.278;9.708;2023-07-09T08:08:37;7.43;;;3.55;;
48207;SDS011;33997;53.278;9.708;2023-07-09T08:11:04;5.03;;;3.47;;
48207;SDS011;33997;53.278;9.708;2023-07-09T08:13:33;8.45;;;3.40;;
48207;SDS011;33997;53.278;9.708;2023-07-09T08:15:59;5.55;;;3.60;;
48207;SDS011;33997;53.278;9.708;2023-07-09T08:18:25;6.25;;;3.35;;
48207;SDS011;33997;53.278;9.708;2023-07-09T08:20:50;5.28;;;3.30;;
48207;SDS011;33997;53.278;9.708;2023-07-09T08:23:16;5.90;;;3.40;;
48207;SDS011;33997;53.278;9.708;2023-07-09T08:25:41;5.13;;;3.80;;
48207;SDS011;33997;53.278;9.708;2023-07-09T08:28:07;9.25;;;3.50;;
48207;SDS011;33997;53.278;9.708;2023-07-09T08:30:33;7.50;;;4.00;;
48207;SDS011;33997;53.278;9.708;2023-07-09T08:32:58;5.38;;;3.45;;
48207;SDS011;33997;53.278;9.708;2023-07-09T08:35:24;4.45;;;3.40;;
48207;SDS011;33997;53.278;9.708;2023-07-09T08:37:49;7.20;;;3.55;;
48207;SDS011;33997;53.278;9.708;2023-07-09T08:40:16;7.35;;;3.53;;
48207;SDS011;33997;53.278;9.708;2023-07-09T08:42:46;6.60;;;3.38;;
48207;SDS011;33997;53.278;9.708;2023-07-09T08:45:29;6.55;;;3.55;;
48207;SDS011;33997;53.278;9.708;2023-07-09T08:48:05;6.28;;;3.50;;
48207;SDS011;33997;53.278;9.708;2023-07-09T08:50:40;6.32;;;3.17;;
48207;SDS011;33997;53.278;9.708;2023-07-09T08:53:10;6.75;;;3.53;;
48207;SDS011;33997;53.278;9.708;2023-07-09T08:55:43;6.15;;;3.20;;
48207;SDS011;33997;53.278;9.708;2023-07-09T08:58:20;6.40;;;3.42;;
48207;SDS011;33997;53.278;9.708;2023-07-09T09:00:51;7.28;;;3.33;;
48207;SDS011;33997;53.278;9.708;2023-07-09T09:03:36;6.90;;;3.10;;
48207;SDS011;33997;53.278;9.708;2023-07-09T09:06:09;6.97;;;3.47;;
48207;SDS011;33997;53.278;9.708;2023-07-09T09:08:43;7.57;;;3.30;;
48207;SDS011;33997;53.278;9.708;2023-07-09T09:11:23;4.90;;;3.50;;
48207;SDS011;33997;53.278;9.708;2023-07-09T09:16:55;7.35;;;3.67;;
48207;SDS011;33997;53.278;9.708;2023-07-09T09:19:45;4.45;;;3.13;;
48207;SDS011;33997;53.278;9.708;2023-07-09T09:22:13;5.13;;;3.20;;
48207;SDS011;33997;53.278;9.708;2023-07-09T09:27:18;5.30;;;3.60;;
48207;SDS011;33997;53.278;9.708;2023-07-09T09:29:44;4.43;;;3.20;;
48207;SDS011;33997;53.278;9.708;2023-07-09T09:32:25;6.80;;;3.20;;
48207;SDS011;33997;53.278;9.708;2023-07-09T09:34:52;7.93;;;3.83;;
48207;SDS011;33997;53.278;9.708;2023-07-09T09:37:29;5.28;;;3.53;;
48207;SDS011;33997;53.278;9.708;2023-07-09T09:39:57;6.28;;;3.47;;
48207;SDS011;33997;53.278;9.708;2023-07-09T09:42:24;5.03;;;3.40;;
48207;SDS011;33997;53.278;9.708;2023-07-09T09:44:50;5.57;;;3.22;;
48207;SDS011;33997;53.278;9.708;2023-07-09T09:47:19;8.15;;;3.63;;
48207;SDS011;33997;53.278;9.708;2023-07-09T09:49:45;5.72;;;3.00;;
48207;SDS011;33997;53.278;9.708;2023-07-09T09:52:14;5.63;;;3.03;;
48207;SDS011;33997;53.278;9.708;2023-07-09T09:54:49;6.43;;;3.28;;
48207;SDS011;33997;53.278;9.708;2023-07-09T09:57:19;5.82;;;3.30;;
48207;SDS011;33997;53.278;9.708;2023-07-09T09:59:49;8.13;;;3.60;;
48207;SDS011;33997;53.278;9.708;2023-07-09T10:02:22;4.45;;;3.00;;
48207;SDS011;33997;53.278;9.708;2023-07-09T10:04:49;7.10;;;3.58;;
48207;SDS011;33997;53.278;9.708;2023-07-09T10:07:19;4.82;;;3.10;;
48207;SDS011;33997;53.278;9.708;2023-07-09T10:09:56;6.82;;;3.22;;
48207;SDS011;33997;53.278;9.708;2023-07-09T10:15:21;6.97;;;2.88;;
48207;SDS011;33997;53.278;9.708;2023-07-09T10:21:04;5.78;;;3.00;;
48207;SDS011;33997;53.278;9.708;2023-07-09T10:23:47;7.45;;;3.50;;
48207;SDS011;33997;53.278;9.708;2023-07-09T10:26:29;4.80;;;2.72;;
48207;SDS011;33997;53.278;9.708;2023-07-09T10:31:56;5.50;;;2.78;;
48207;SDS011;33997;53.278;9.708;2023-07-09T10:34:42;5.72;;;2.90;;
48207;SDS011;33997;53.278;9.708;2023-07-09T10:39:55;4.38;;;3.13;;
48207;SDS011;33997;53.278;9.708;2023-07-09T10:44:57;9.10;;;3.40;;
48207;SDS011;33997;53.278;9.708;2023-07-09T10:47:30;5.72;;;3.20;;
48207;SDS011;33997;53.278;9.708;2023-07-09T10:50:00;4.88;;;2.90;;
48207;SDS011;33997;53.278;9.708;2023-07-09T10:52:28;5.13;;;3.35;;
48207;SDS011;33997;53.278;9.708;2023-07-09T10:55:17;5.43;;;2.90;;
48207;SDS011;33997;53.278;9.708;2023-07-09T10:58:04;3.85;;;2.72;;
48207;SDS011;33997;53.278;9.708;2023-07-09T11:00:49;7.13;;;3.17;;
48207;SDS011;33997;53.278;9.708;2023-07-09T11:03:16;10.50;;;3.35;;
48207;SDS011;33997;53.278;9.708;2023-07-09T11:05:46;4.78;;;2.97;;
48207;SDS011;33997;53.278;9.708;2023-07-09T11:08:15;5.90;;;2.90;;
48207;SDS011;33997;53.278;9.708;2023-07-09T11:10:48;5.55;;;3.17;;
48207;SDS011;33997;53.278;9.708;2023-07-09T11:13:31;6.93;;;3.58;;
48207;SDS011;33997;53.278;9.708;2023-07-09T11:16:05;7.80;;;3.58;;
48207;SDS011;33997;53.278;9.708;2023-07-09T11:18:33;4.63;;;2.80;;
48207;SDS011;33997;53.278;9.708;2023-07-09T11:21:07;5.18;;;3.10;;
48207;SDS011;33997;53.278;9.708;2023-07-09T11:26:14;3.30;;;2.58;;
48207;SDS011;33997;53.278;9.708;2023-07-09T11:28:51;4.75;;;2.78;;
48207;SDS011;33997;53.278;9.708;2023-07-09T11:34:01;4.63;;;3.17;;
48207;SDS011;33997;53.278;9.708;2023-07-09T11:36:32;5.43;;;3.03;;
48207;SDS011;33997;53.278;9.708;2023-07-09T11:38:59;4.63;;;3.08;;
48207;SDS011;33997;53.278;9.708;2023-07-09T11:41:46;4.85;;;3.08;;
48207;SDS011;33997;53.278;9.708;2023-07-09T11:44:16;3.67;;;2.83;;
48207;SDS011;33997;53.278;9.708;2023-07-09T11:46:51;4.90;;;2.78;;
48207;SDS011;33997;53.278;9.708;2023-07-09T11:49:34;5.97;;;2.90;;
48207;SDS011;33997;53.278;9.708;2023-07-09T11:52:08;8.95;;;3.00;;
48207;SDS011;33997;53.278;9.708;2023-07-09T11:54:36;6.05;;;2.80;;
48207;SDS011;33997;53.278;9.708;2023-07-09T11:57:02;5.30;;;3.15;;
48207;SDS011;33997;53.278;9.708;2023-07-09T11:59:38;4.95;;;3.33;;
48207;SDS011;33997;53.278;9.708;2023-07-09T12:02:05;6.30;;;3.40;;
48207;SDS011;33997;53.278;9.708;2023-07-09T12:04:38;5.15;;;3.08;;
48207;SDS011;33997;53.278;9.708;2023-07-09T12:07:05;5.80;;;3.00;;
48207;SDS011;33997;53.278;9.708;2023-07-09T12:09:32;4.80;;;2.92;;
48207;SDS011;33997;53.278;9.708;2023-07-09T12:12:01;8.02;;;3.38;;
48207;SDS011;33997;53.278;9.708;2023-07-09T12:14:27;5.63;;;3.05;;
48207;SDS011;33997;53.278;9.708;2023-07-09T12:16:53;6.85;;;3.15;;
48207;SDS011;33997;53.278;9.708;2023-07-09T12:19:20;6.50;;;3.03;;
48207;SDS011;33997;53.278;9.708;2023-07-09T12:21:48;4.93;;;2.92;;
48207;SDS011;33997;53.278;9.708;2023-07-09T12:24:21;4.38;;;2.90;;
48207;SDS011;33997;53.278;9.708;2023-07-09T12:26:51;4.73;;;2.93;;
48207;SDS011;33997;53.278;9.708;2023-07-09T12:29:27;4.75;;;2.97;;
48207;SDS011;33997;53.278;9.708;2023-07-09T12:31:58;5.30;;;2.92;;
48207;SDS011;33997;53.278;9.708;2023-07-09T12:34:27;4.30;;;2.83;;
48207;SDS011;33997;53.278;9.708;2023-07-09T12:36:56;6.35;;;3.03;;
48207;SDS011;33997;53.278;9.708;2023-07-09T12:39:25;5.43;;;3.08;;
48207;SDS011;33997;53.278;9.708;2023-07-09T12:41:54;3.53;;;2.80;;
48207;SDS011;33997;53.278;9.708;2023-07-09T12:44:22;4.63;;;2.65;;
48207;SDS011;33997;53.278;9.708;2023-07-09T12:46:49;5.88;;;3.20;;
48207;SDS011;33997;53.278;9.708;2023-07-09T12:49:20;6.38;;;3.17;;
48207;SDS011;33997;53.278;9.708;2023-07-09T12:51:46;5.75;;;3.05;;
48207;SDS011;33997;53.278;9.708;2023-07-09T12:54:14;7.07;;;3.05;;
48207;SDS011;33997;53.278;9.708;2023-07-09T12:56:41;4.82;;;3.33;;
48207;SDS011;33997;53.278;9.708;2023-07-09T12:59:18;5.07;;;2.78;;
48207;SDS011;33997;53.278;9.708;2023-07-09T13:01:47;6.55;;;3.08;;
48207;SDS011;33997;53.278;9.708;2023-07-09T13:04:36;5.25;;;2.97;;
48207;SDS011;33997;53.278;9.708;2023-07-09T13:07:03;4.82;;;2.80;;
48207;SDS011;33997;53.278;9.708;2023-07-09T13:09:29;4.32;;;2.63;;
48207;SDS011;33997;53.278;9.708;2023-07-09T13:11:55;4.13;;;2.70;;
48207;SDS011;33997;53.278;9.708;2023-07-09T13:14:22;5.40;;;3.10;;
48207;SDS011;33997;53.278;9.708;2023-07-09T13:16:50;4.40;;;2.88;;
48207;SDS011;33997;53.278;9.708;2023-07-09T13:19:19;6.63;;;2.92;;
48207;SDS011;33997;53.278;9.708;2023-07-09T13:21:44;6.27;;;2.90;;
48207;SDS011;33997;53.278;9.708;2023-07-09T13:24:32;6.30;;;2.97;;
48207;SDS011;33997;53.278;9.708;2023-07-09T13:27:00;4.35;;;3.17;;
48207;SDS011;33997;53.278;9.708;2023-07-09T13:29:26;4.30;;;2.80;;
48207;SDS011;33997;53.278;9.708;2023-07-09T13:31:52;4.10;;;3.03;;
48207;SDS011;33997;53.278;9.708;2023-07-09T13:36:48;5.93;;;2.97;;
48207;SDS011;33997;53.278;9.708;2023-07-09T13:39:15;3.92;;;2.78;;
48207;SDS011;33997;53.278;9.708;2023-07-09T13:41:44;6.25;;;3.38;;
48207;SDS011;33997;53.278;9.708;2023-07-09T13:44:15;6.18;;;3.22;;
48207;SDS011;33997;53.278;9.708;2023-07-09T13:46:42;6.35;;;3.08;;
48207;SDS011;33997;53.278;9.708;2023-07-09T13:49:11;5.10;;;3.13;;
48207;SDS011;33997;53.278;9.708;2023-07-09T13:51:39;5.72;;;3.05;;
48207;SDS011;33997;53.278;9.708;2023-07-09T13:54:13;6.57;;;3.22;;
48207;SDS011;33997;53.278;9.708;2023-07-09T13:57:00;6.10;;;3.00;;
48207;SDS011;33997;53.278;9.708;2023-07-09T13:59:29;8.93;;;3.15;;
48207;SDS011;33997;53.278;9.708;2023-07-09T14:01:56;5.18;;;2.80;;
48207;SDS011;33997;53.278;9.708;2023-07-09T14:04:23;7.72;;;3.08;;
48207;SDS011;33997;53.278;9.708;2023-07-09T14:06:49;5.63;;;3.28;;
48207;SDS011;33997;53.278;9.708;2023-07-09T14:09:15;6.30;;;3.00;;
48207;SDS011;33997;53.278;9.708;2023-07-09T14:11:43;5.57;;;3.10;;
48207;SDS011;33997;53.278;9.708;2023-07-09T14:14:17;4.93;;;3.03;;
48207;SDS011;33997;53.278;9.708;2023-07-09T14:16:50;7.05;;;2.92;;
48207;SDS011;33997;53.278;9.708;2023-07-09T14:19:18;6.80;;;2.97;;
48207;SDS011;33997;53.278;9.708;2023-07-09T14:21:45;5.20;;;2.85;;
48207;SDS011;33997;53.278;9.708;2023-07-09T14:26:45;6.70;;;2.92;;
48207;SDS011;33997;53.278;9.708;2023-07-09T14:29:15;6.00;;;3.08;;
48207;SDS011;33997;53.278;9.708;2023-07-09T14:31:41;6.90;;;3.00;;
48207;SDS011;33997;53.278;9.708;2023-07-09T14:34:15;7.13;;;3.10;;
48207;SDS011;33997;53.278;9.708;2023-07-09T14:36:57;4.65;;;3.20;;
48207;SDS011;33997;53.278;9.708;2023-07-09T14:39:25;5.22;;;2.78;;
48207;SDS011;33997;53.278;9.708;2023-07-09T14:41:51;5.85;;;2.80;;
48207;SDS011;33997;53.278;9.708;2023-07-09T14:49:23;8.00;;;3.28;;
48207;SDS011;33997;53.278;9.708;2023-07-09T14:51:49;5.35;;;3.00;;
48207;SDS011;33997;53.278;9.708;2023-07-09T14:54:49;6.68;;;2.90;;
48207;SDS011;33997;53.278;9.708;2023-07-09T14:57:16;5.05;;;3.25;;
48207;SDS011;33997;53.278;9.708;2023-07-09T14:59:44;7.72;;;3.35;;
48207;SDS011;33997;53.278;9.708;2023-07-09T15:04:54;5.25;;;3.55;;
48207;SDS011;33997;53.278;9.708;2023-07-09T15:07:20;5.97;;;2.83;;
48207;SDS011;33997;53.278;9.708;2023-07-09T15:09:45;7.88;;;3.42;;
48207;SDS011;33997;53.278;9.708;2023-07-09T15:12:21;4.70;;;3.10;;
48207;SDS011;33997;53.278;9.708;2023-07-09T15:14:50;5.78;;;3.10;;
48207;SDS011;33997;53.278;9.708;2023-07-09T15:17:16;4.97;;;2.78;;
48207;SDS011;33997;53.278;9.708;2023-07-09T15:19:41;5.25;;;2.88;;
48207;SDS011;33997;53.278;9.708;2023-07-09T15:22:16;6.43;;;3.28;;
48207;SDS011;33997;53.278;9.708;2023-07-09T15:24:51;5.78;;;3.30;;
48207;SDS011;33997;53.278;9.708;2023-07-09T15:27:16;5.28;;;3.20;;
48207;SDS011;33997;53.278;9.708;2023-07-09T15:29:42;5.25;;;2.92;;
48207;SDS011;33997;53.278;9.708;2023-07-09T15:32:07;4.22;;;3.10;;
48207;SDS011;33997;53.278;9.708;2023-07-09T15:34:33;8.30;;;3.25;;
48207;SDS011;33997;53.278;9.708;2023-07-09T15:36:58;4.85;;;3.50;;